• Join FlightAware (Why Join?)
  • Login
  • US Flag 
01:29PM EDT


 

Airport Tracker/Info


-or-


 

Live Flight TrackerFlight Track Log ✈ CPT926 ✈ 31-Jul-2013 ✈ PHLI / LIH - PHNL

Flight Track Log - Related Links

Times and Time Zones

All times are in EDT time to prevent confusion due to time zone crossing. See the CPT926 flight status page for this flight to view local times or setup timezone preferences in your user account.

Time Position Orientation Groundspeed Altitude Reporting Facility
EDT Latitude Longitude Course Direction KTS MPH feet Rate Location/Type
07:57PM 21.9500 -159.3000 118° Southeast 100 115 2,200  Level Honolulu Center
07:58PM 21.9333 -159.2833 137° Southeast 100 115 3,500 1,260 Climbing Honolulu Center
07:59PM 21.9167 -159.2667 137° Southeast 100 115 4,800 1,260 Climbing Honolulu Center
08:00PM 21.9000 -159.2500 137° Southeast 90 104 6,100 1,080 Climbing Honolulu Center
08:01PM 21.8833 -159.2167 118° Southeast 110 127 7,000 420 Climbing Honolulu Center
08:02PM 21.8500 -159.1833 137° Southeast 150 173 7,000  Level Honolulu Center
08:03PM 21.8333 -159.1667 137° Southeast 140 161 7,000  Level Honolulu Center
08:04PM 21.8000 -159.1333 137° Southeast 140 161 7,000  Level Honolulu Center
08:05PM 21.7833 -159.1000 118° Southeast 140 161 7,000  Level Honolulu Center
08:06PM 21.7667 -159.0667 118° Southeast 110 127 7,000  Level Honolulu Center
08:07PM 21.7500 -159.0333 118° Southeast 120 138 7,000  Level Honolulu Center
08:08PM 21.7333 -159.0000 118° Southeast 120 138 7,000  Level Honolulu Center
08:09PM 21.7167 -158.9667 118° Southeast 120 138 7,000  Level Honolulu Center
08:10PM 21.7000 -158.9333 118° Southeast 120 138 7,000  Level Honolulu Center
08:11PM 21.7000 -158.9000 90° East 110 127 7,000  Level Honolulu Center
08:13PM 21.7000 -158.8667 90° East 120 138 7,000  Level Honolulu Center
08:14PM 21.6833 -158.8333 118° Southeast 140 161 7,000  Level Honolulu Center
08:15PM 21.6667 -158.8000 118° Southeast 140 161 7,000  Level Honolulu Center
08:16PM 21.6500 -158.7667 118° Southeast 130 150 7,000  Level Honolulu Center
08:17PM 21.6333 -158.7333 118° Southeast 150 173 7,000  Level Honolulu Center
08:18PM 21.6167 -158.7167 137° Southeast 120 138 7,000  Level Honolulu Center
08:19PM 21.5833 -158.6667 126° Southeast 120 138 7,000  Level Honolulu Center
08:20PM 21.5667 -158.6333 118° Southeast 150 173 7,000  Level Honolulu Center
08:21PM 21.5500 -158.6000 118° Southeast 120 138 7,000  Level Honolulu Center
08:22PM 21.5333 -158.5667 118° Southeast 130 150 7,000  Level Honolulu Center
08:23PM 21.5167 -158.5333 118° Southeast 130 150 7,000  Level Honolulu Center
08:24PM 21.5000 -158.5167 137° Southeast 120 138 7,000 -60 Level Honolulu Center
08:25PM 21.4667 -158.4833 137° Southeast 140 161 6,900 -300 Descending Honolulu Center
08:26PM 21.4333 -158.4500 137° Southeast 140 161 6,400 -480 Descending Honolulu Center
08:27PM 21.4000 -158.4333 155° Southeast 140 161 6,000 -540 Descending Honolulu Center
08:28PM 21.3667 -158.4000 137° Southeast 140 161 5,400 -480 Descending Honolulu Center
08:29PM 21.3500 -158.3667 118° Southeast 140 161 5,100 -180 Descending Honolulu Center
08:30PM 21.3167 -158.3500 155° Southeast 130 150 5,100 -120 Level Honolulu Center
08:31PM 21.2833 -158.3167 137° Southeast 160 184 4,900 -300 Descending Honolulu Center
08:32PM 21.2500 -158.3000 155° Southeast 130 150 4,500 -540 Descending Honolulu Center
08:33PM 21.2167 -158.2667 137° Southeast 140 161 3,900 -600 Descending Honolulu Center
08:34PM 21.2000 -158.2500 137° Southeast 140 161 3,300 -600 Descending Honolulu Center
08:35PM 21.1667 -158.2167 137° Southeast 110 127 2,800 -540 Descending Honolulu Center
08:36PM 21.1667 -158.1833 90° East 130 150 2,300 -420 Descending Honolulu Center
08:37PM 21.2000 -158.1500 43° Northeast 130 150 2,000 -180 Descending Honolulu Center
08:38PM 21.2167 -158.1167 62° Northeast 130 150 2,000  Level Honolulu Center
08:39PM 21.2333 -158.0833 62° Northeast 130 150 2,100  Climbing Honolulu Center
08:40PM 21.2333 -158.0500 90° East 130 150 2,100 -60 Level Honolulu Center
08:41PM 21.2500 -158.0167 62° Northeast 120 138 2,000 -300 Descending Honolulu Center
08:42PM 21.2667 -157.9833 62° Northeast 100 115 1,600 -600 Descending Honolulu Center
08:43PM 21.2833 -157.9500 62° Northeast 90 104 900 -720 Descending Honolulu Center